createdAt,value
2019-05-29T00:00:30.758Z,20.27
2019-05-29T00:03:34.716Z,25.87
2019-05-29T00:06:38.699Z,29.00
2019-05-29T00:09:42.578Z,31.53
2019-05-29T00:12:46.536Z,30.63
2019-05-29T00:15:50.475Z,29.97
2019-05-29T00:18:57.620Z,28.53
2019-05-29T00:22:00.063Z,33.33
2019-05-29T00:25:08.571Z,33.00
2019-05-29T00:28:12.719Z,27.80
2019-05-29T00:31:17.893Z,24.10
2019-05-29T00:34:22.355Z,24.03
2019-05-29T00:37:26.327Z,22.60
2019-05-29T00:40:30.216Z,22.33
2019-05-29T00:43:34.141Z,22.97
2019-05-29T00:46:37.980Z,23.17
2019-05-29T00:49:41.981Z,23.43
2019-05-29T00:52:45.868Z,21.03
2019-05-29T00:55:49.819Z,20.93
2019-05-29T00:58:53.739Z,19.13
2019-05-29T01:01:57.692Z,19.03
2019-05-29T01:05:01.645Z,16.83
2019-05-29T01:08:05.624Z,17.77
2019-05-29T01:11:10.548Z,17.67
2019-05-29T01:14:15.141Z,18.17
2019-05-29T01:17:19.832Z,17.60
2019-05-29T01:20:23.816Z,18.47
2019-05-29T01:23:27.819Z,18.30
2019-05-29T01:26:31.818Z,18.57
2019-05-29T01:29:35.706Z,18.47
2019-05-29T01:32:39.596Z,20.40
2019-05-29T01:35:43.518Z,22.37
2019-05-29T01:38:47.505Z,20.80
2019-05-29T01:41:51.410Z,21.30
2019-05-29T01:45:07.064Z,18.70
2019-05-29T01:48:00.916Z,17.10
2019-05-29T01:51:05.153Z,16.50
2019-05-29T01:54:09.052Z,16.57
2019-05-29T01:57:13.031Z,16.57
2019-05-29T02:00:17.831Z,17.60
2019-05-29T02:03:22.033Z,17.00
2019-05-29T02:06:25.994Z,16.87
2019-05-29T02:09:29.951Z,17.07
2019-05-29T02:12:33.860Z,16.63
2019-05-29T02:15:37.782Z,16.93
2019-05-29T02:18:41.640Z,16.67
2019-05-29T02:21:45.621Z,16.23
2019-05-29T02:24:49.521Z,15.57
2019-05-29T02:27:53.472Z,15.00
2019-05-29T02:30:57.481Z,15.50
2019-05-29T02:34:01.430Z,14.77
2019-05-29T02:37:05.303Z,14.03
2019-05-29T02:40:09.651Z,13.20
2019-05-29T02:43:13.649Z,13.30
2019-05-29T02:46:19.310Z,13.13
2019-05-29T02:49:23.864Z,13.57
2019-05-29T02:52:28.768Z,11.43
2019-05-29T02:55:33.605Z,11.10
2019-05-29T02:58:37.519Z,9.43
2019-05-29T03:01:41.398Z,9.13
2019-05-29T03:04:45.401Z,9.60
2019-05-29T03:07:49.517Z,8.07
2019-05-29T03:10:53.582Z,7.67
2019-05-29T03:13:57.515Z,7.77
2019-05-29T03:17:01.467Z,7.47
2019-05-29T03:20:06.890Z,7.37
2019-05-29T03:23:10.790Z,7.30
2019-05-29T03:26:14.696Z,8.37
2019-05-29T03:29:18.666Z,11.37
2019-05-29T03:32:22.656Z,10.47
2019-05-29T03:35:28.390Z,10.97
2019-05-29T03:38:33.218Z,11.50
2019-05-29T03:41:39.065Z,10.93
2019-05-29T03:44:43.099Z,10.53
2019-05-29T03:47:47.135Z,10.37
2019-05-29T03:50:51.122Z,9.77
2019-05-29T03:53:55.123Z,8.10
2019-05-29T03:56:59.005Z,8.43
2019-05-29T04:00:02.993Z,8.20
2019-05-29T04:03:06.861Z,7.90
2019-05-29T04:06:10.801Z,6.87
2019-05-29T04:09:14.660Z,7.70
2019-05-29T04:12:19.277Z,6.90
2019-05-29T04:15:23.336Z,7.53
2019-05-29T04:18:29.587Z,7.30
2019-05-29T04:21:34.293Z,8.20
2019-05-29T04:24:41.319Z,7.50
2019-05-29T04:27:48.240Z,7.27
2019-05-29T04:30:52.139Z,6.83
2019-05-29T04:33:56.126Z,7.43
2019-05-29T04:37:00.028Z,7.27
2019-05-29T04:40:05.899Z,8.30
2019-05-29T04:43:09.782Z,7.43
2019-05-29T04:46:13.709Z,7.73
2019-05-29T04:49:20.164Z,8.17
2019-05-29T04:52:23.236Z,6.50
2019-05-29T04:55:27.108Z,6.20
2019-05-29T04:58:31.056Z,5.60
2019-05-29T05:01:35.062Z,4.93
2019-05-29T05:04:39.423Z,3.93
2019-05-29T05:07:43.420Z,4.20
2019-05-29T05:10:47.426Z,3.30
2019-05-29T05:13:51.323Z,3.50
2019-05-29T05:16:55.575Z,3.70
2019-05-29T05:19:59.492Z,3.67
2019-05-29T05:23:03.480Z,3.53
2019-05-29T05:26:07.406Z,3.90
2019-05-29T05:29:11.377Z,3.73
2019-05-29T05:32:15.261Z,3.00
2019-05-29T05:35:19.280Z,3.40
2019-05-29T05:38:23.221Z,3.00
2019-05-29T05:41:27.237Z,3.20
2019-05-29T05:44:31.438Z,2.90
2019-05-29T05:47:50.006Z,3.10
2019-05-29T05:50:41.515Z,3.23
2019-05-29T05:53:45.587Z,3.07
2019-05-29T05:56:49.520Z,3.20
2019-05-29T05:59:54.061Z,3.40
2019-05-29T06:02:58.253Z,3.40
2019-05-29T06:06:02.760Z,5.90
2019-05-29T06:09:08.579Z,8.17
2019-05-29T06:12:12.590Z,9.57
2019-05-29T06:15:16.753Z,6.07
2019-05-29T06:18:21.921Z,4.40
2019-05-29T06:21:26.254Z,4.20
2019-05-29T06:24:30.174Z,2.90
2019-05-29T06:27:35.173Z,4.03
2019-05-29T06:30:40.878Z,3.63
2019-05-29T06:33:44.762Z,4.23
2019-05-29T06:36:48.708Z,4.30
2019-05-29T06:39:52.716Z,4.83
2019-05-29T06:42:56.732Z,5.53
2019-05-29T06:46:00.636Z,4.93
2019-05-29T06:49:04.697Z,5.33
2019-05-29T06:52:09.296Z,5.27
2019-05-29T06:55:13.580Z,4.73
2019-05-29T06:58:17.625Z,5.30
2019-05-29T07:01:21.714Z,4.77
2019-05-29T07:04:25.825Z,4.60
2019-05-29T07:07:29.780Z,3.87
2019-05-29T07:10:34.527Z,4.30
2019-05-29T07:13:41.804Z,4.47
2019-05-29T07:16:55.788Z,4.10
2019-05-29T07:20:00.757Z,4.50
2019-05-29T07:22:58.242Z,4.30
2019-05-29T07:26:02.325Z,4.10
2019-05-29T07:29:08.591Z,4.07
2019-05-29T07:32:12.735Z,4.10
2019-05-29T07:35:16.817Z,3.50
2019-05-29T07:38:20.926Z,3.80
2019-05-29T07:41:24.847Z,3.50
2019-05-29T07:44:28.850Z,3.60
2019-05-29T07:47:32.767Z,4.03
2019-05-29T07:50:37.955Z,3.90
2019-05-29T07:53:42.286Z,3.50
2019-05-29T07:56:46.635Z,3.40
2019-05-29T07:59:50.535Z,3.60
2019-05-29T08:02:54.451Z,4.40
2019-05-29T08:05:58.463Z,8.33
2019-05-29T08:09:02.440Z,10.43
2019-05-29T08:12:06.329Z,13.17
2019-05-29T08:15:10.576Z,18.63
2019-05-29T08:18:14.471Z,12.63
2019-05-29T08:21:18.406Z,8.43
2019-05-29T08:24:24.797Z,10.03
2019-05-29T08:27:27.941Z,9.27
2019-05-29T08:30:31.838Z,6.90
2019-05-29T08:33:35.915Z,6.43
2019-05-29T08:36:40.808Z,6.00
2019-05-29T08:39:45.536Z,5.30
2019-05-29T08:42:49.490Z,4.60
2019-05-29T08:45:53.536Z,5.77
2019-05-29T08:48:57.481Z,5.20
2019-05-29T08:52:10.985Z,5.37
2019-05-29T08:55:08.079Z,6.20
2019-05-29T08:58:12.234Z,5.73
2019-05-29T09:01:16.552Z,3.77
2019-05-29T09:04:20.527Z,3.80
2019-05-29T09:07:24.529Z,3.50
2019-05-29T09:10:29.641Z,3.50
2019-05-29T09:13:33.567Z,3.50
2019-05-29T09:16:37.918Z,3.80
2019-05-29T09:19:42.026Z,3.87
2019-05-29T09:22:45.940Z,3.90
2019-05-29T09:25:49.899Z,3.77
2019-05-29T09:28:53.908Z,4.13
2019-05-29T09:31:57.881Z,4.77
2019-05-29T09:35:02.136Z,4.83
2019-05-29T09:38:07.351Z,5.00
2019-05-29T09:41:11.293Z,4.47
2019-05-29T09:44:31.261Z,5.10
2019-05-29T09:47:22.217Z,4.93
2019-05-29T09:50:27.674Z,5.03
2019-05-29T09:53:31.827Z,5.07
2019-05-29T09:56:35.688Z,5.27
2019-05-29T09:59:39.658Z,5.40
2019-05-29T10:02:43.593Z,4.67
2019-05-29T10:05:47.648Z,3.93
2019-05-29T10:08:51.554Z,4.10
2019-05-29T10:11:59.670Z,5.00
2019-05-29T10:15:02.526Z,3.90
2019-05-29T10:18:10.141Z,4.10
2019-05-29T10:21:12.566Z,4.03
2019-05-29T10:24:16.579Z,4.00
2019-05-29T10:27:20.475Z,4.20
2019-05-29T10:30:25.842Z,3.30
2019-05-29T10:33:29.802Z,4.10
2019-05-29T10:36:33.862Z,3.97
2019-05-29T10:39:37.891Z,4.23
2019-05-29T10:42:42.949Z,3.63
2019-05-29T10:45:48.041Z,3.40
2019-05-29T10:48:55.974Z,3.87
2019-05-29T10:52:13.901Z,3.70
2019-05-29T10:55:04.765Z,3.50
2019-05-29T10:58:08.659Z,3.50
2019-05-29T11:01:12.613Z,3.40
2019-05-29T11:04:16.569Z,3.70
2019-05-29T11:07:22.162Z,3.80
2019-05-29T11:10:27.213Z,3.70
2019-05-29T11:13:31.093Z,3.30
2019-05-29T11:16:35.016Z,3.30
2019-05-29T11:19:38.963Z,3.10
2019-05-29T11:22:42.876Z,3.50
2019-05-29T11:25:47.772Z,3.57
2019-05-29T11:28:52.409Z,4.03
2019-05-29T11:31:57.009Z,4.37
2019-05-29T11:35:02.221Z,4.43
2019-05-29T11:38:06.594Z,4.23
2019-05-29T11:41:25.319Z,4.33
2019-05-29T11:44:17.813Z,5.20
2019-05-29T11:47:21.779Z,5.87
2019-05-29T11:50:25.842Z,6.00
2019-05-29T11:53:29.883Z,5.63
2019-05-29T11:56:34.912Z,6.03
2019-05-29T11:59:38.983Z,6.50
2019-05-29T12:02:43.123Z,6.90
2019-05-29T12:05:47.321Z,7.97
2019-05-29T12:08:51.483Z,8.10
2019-05-29T12:11:56.105Z,9.60
2019-05-29T12:15:09.854Z,9.00
2019-05-29T12:18:23.039Z,10.10
2019-05-29T12:21:11.585Z,10.23
2019-05-29T12:24:15.617Z,12.27
2019-05-29T12:27:19.482Z,10.10
2019-05-29T12:30:24.957Z,9.97
2019-05-29T12:33:28.985Z,10.87
2019-05-29T12:36:32.900Z,10.37
2019-05-29T12:39:36.902Z,9.90
2019-05-29T12:42:44.747Z,9.67
2019-05-29T12:45:46.438Z,9.23
2019-05-29T12:48:50.473Z,8.70
2019-05-29T12:51:55.387Z,9.03
2019-05-29T12:55:00.023Z,9.27
2019-05-29T12:58:04.569Z,8.00
2019-05-29T13:01:08.583Z,7.70
2019-05-29T13:04:12.685Z,8.27
2019-05-29T13:07:17.003Z,7.47
2019-05-29T13:10:30.590Z,8.00
2019-05-29T13:13:27.516Z,8.67
2019-05-29T13:16:31.708Z,9.13
2019-05-29T13:19:35.643Z,8.67
2019-05-29T13:22:39.848Z,9.47
2019-05-29T13:25:43.843Z,9.23
2019-05-29T13:28:48.173Z,10.20
2019-05-29T13:31:55.702Z,10.70
2019-05-29T13:34:58.239Z,13.53
2019-05-29T13:38:03.300Z,14.23
2019-05-29T13:41:07.702Z,15.30
2019-05-29T13:44:11.985Z,14.60
2019-05-29T13:47:16.055Z,15.13
2019-05-29T13:50:20.984Z,16.73
2019-05-29T13:53:25.090Z,16.40
2019-05-29T13:56:29.301Z,16.23
2019-05-29T13:59:33.440Z,16.03
2019-05-29T14:02:37.348Z,15.53
2019-05-29T14:05:41.341Z,15.73
2019-05-29T14:08:45.476Z,16.03
2019-05-29T14:11:49.472Z,14.60
2019-05-29T14:14:53.592Z,13.77
2019-05-29T14:17:57.601Z,13.93
2019-05-29T14:21:03.125Z,14.10
2019-05-29T14:24:23.478Z,12.17
2019-05-29T14:27:13.310Z,13.37
2019-05-29T14:30:17.549Z,12.70
2019-05-29T14:33:21.556Z,12.17
2019-05-29T14:36:25.652Z,12.37
2019-05-29T14:39:29.943Z,12.00
2019-05-29T14:42:34.141Z,12.13
2019-05-29T14:45:38.376Z,12.20
2019-05-29T14:48:42.550Z,12.67
2019-05-29T14:51:46.496Z,12.40
2019-05-29T14:54:52.426Z,11.67
2019-05-29T14:57:56.536Z,13.33
2019-05-29T15:01:00.518Z,12.43
2019-05-29T15:04:05.474Z,10.57
2019-05-29T15:07:09.855Z,10.87
2019-05-29T15:10:24.816Z,11.70
2019-05-29T15:13:21.612Z,11.00
2019-05-29T15:16:25.691Z,10.97
2019-05-29T15:19:29.697Z,10.50
2019-05-29T15:22:33.646Z,11.17
2019-05-29T15:25:37.582Z,10.17
2019-05-29T15:28:41.546Z,10.70
2019-05-29T15:31:45.604Z,11.20
2019-05-29T15:34:49.540Z,11.37
2019-05-29T15:37:53.569Z,11.10
2019-05-29T15:40:57.579Z,11.47
2019-05-29T15:44:01.507Z,11.03
2019-05-29T15:47:06.773Z,10.27
2019-05-29T15:50:13.414Z,10.90
2019-05-29T15:53:17.932Z,10.43
2019-05-29T15:56:27.749Z,11.20
2019-05-29T15:59:27.554Z,12.50
2019-05-29T16:02:31.631Z,12.07
2019-05-29T16:05:35.731Z,12.33
2019-05-29T16:08:39.817Z,12.07
2019-05-29T16:11:43.702Z,12.47
2019-05-29T16:14:47.658Z,11.67
2019-05-29T16:17:51.551Z,12.40
2019-05-29T16:20:55.595Z,12.23
2019-05-29T16:23:59.561Z,13.80
2019-05-29T16:27:08.788Z,13.80
2019-05-29T16:30:11.381Z,14.37
2019-05-29T16:33:17.042Z,14.60
2019-05-29T16:36:23.521Z,14.43
2019-05-29T16:39:27.685Z,18.73
2019-05-29T16:42:31.583Z,18.13
2019-05-29T16:45:35.772Z,16.63
2019-05-29T16:48:39.962Z,18.50
2019-05-29T16:51:45.566Z,17.10
2019-05-29T16:54:49.721Z,21.87
2019-05-29T16:57:53.717Z,18.87
2019-05-29T17:00:57.616Z,22.27
2019-05-29T17:04:01.586Z,17.67
2019-05-29T17:07:05.546Z,17.10
2019-05-29T17:10:10.179Z,17.97
2019-05-29T17:13:14.674Z,16.70
2019-05-29T17:16:18.771Z,18.23
2019-05-29T17:19:23.158Z,17.43
2019-05-29T17:22:27.332Z,18.50
2019-05-29T17:25:31.286Z,18.17
2019-05-29T17:28:35.271Z,19.13
2019-05-29T17:31:39.237Z,17.73
2019-05-29T17:34:43.220Z,18.20
2019-05-29T17:37:47.256Z,20.00
2019-05-29T17:40:51.326Z,19.37
2019-05-29T17:43:55.430Z,19.47
2019-05-29T17:46:59.486Z,20.17
2019-05-29T17:50:04.856Z,21.87
2019-05-29T17:53:08.886Z,21.23
2019-05-29T17:56:25.333Z,21.23
2019-05-29T17:59:20.028Z,21.17
2019-05-29T18:02:24.647Z,22.70
2019-05-29T18:05:29.376Z,22.00
2019-05-29T18:08:33.569Z,22.30
2019-05-29T18:11:37.666Z,21.53
2019-05-29T18:14:41.746Z,23.47
2019-05-29T18:17:45.850Z,22.57
2019-05-29T18:20:49.845Z,23.27
2019-05-29T18:23:54.005Z,24.10
2019-05-29T18:26:59.201Z,25.73
2019-05-29T18:30:03.587Z,26.07
2019-05-29T18:33:07.632Z,25.90
2019-05-29T18:36:11.656Z,27.43
2019-05-29T18:39:15.735Z,28.67
2019-05-29T18:42:20.401Z,27.87
2019-05-29T18:45:26.216Z,26.43
2019-05-29T18:48:32.293Z,25.97
2019-05-29T18:51:35.975Z,24.27
2019-05-29T18:54:39.981Z,27.63
2019-05-29T18:57:44.587Z,26.90
2019-05-29T19:00:48.699Z,27.97
2019-05-29T19:03:52.745Z,27.27
2019-05-29T19:07:06.186Z,27.43
2019-05-29T19:10:11.689Z,28.77
2019-05-29T19:13:15.973Z,27.03
2019-05-29T19:16:21.738Z,27.47
2019-05-29T19:19:26.217Z,28.67
2019-05-29T19:22:30.565Z,28.27
2019-05-29T19:25:34.771Z,28.40
2019-05-29T19:28:38.902Z,29.87
2019-05-29T19:31:43.241Z,28.00
2019-05-29T19:34:47.310Z,27.37
2019-05-29T19:37:51.355Z,27.07
2019-05-29T19:40:55.384Z,28.60
2019-05-29T19:43:59.368Z,29.53
2019-05-29T19:47:03.740Z,28.43
2019-05-29T19:50:11.800Z,29.43
2019-05-29T19:53:16.004Z,30.87
2019-05-29T19:56:20.101Z,30.10
2019-05-29T19:59:24.103Z,29.07
2019-05-29T20:02:28.465Z,29.73
2019-05-29T20:05:32.846Z,27.57
2019-05-29T20:08:39.410Z,28.67
2019-05-29T20:11:42.600Z,28.53
2019-05-29T20:14:46.521Z,30.10
2019-05-29T20:17:50.594Z,28.23
2019-05-29T20:20:54.635Z,29.57
2019-05-29T20:23:58.831Z,30.73
2019-05-29T20:27:03.059Z,29.73
2019-05-29T20:30:09.776Z,27.43
2019-05-29T20:33:14.032Z,29.83
2019-05-29T20:36:19.062Z,29.30
2019-05-29T20:39:23.842Z,29.60
2019-05-29T20:42:28.186Z,31.37
2019-05-29T20:45:33.329Z,31.70
2019-05-29T20:48:38.697Z,31.70
2019-05-29T20:51:42.853Z,29.77
2019-05-29T20:54:48.617Z,32.93
2019-05-29T20:57:52.804Z,31.87
2019-05-29T21:00:56.818Z,30.37
2019-05-29T21:04:00.902Z,29.50
2019-05-29T21:07:05.473Z,29.97
2019-05-29T21:10:10.222Z,30.03
2019-05-29T21:13:14.446Z,30.07
2019-05-29T21:16:18.652Z,29.43
2019-05-29T21:19:22.852Z,28.87
2019-05-29T21:22:26.974Z,31.53
2019-05-29T21:25:31.172Z,30.57
2019-05-29T21:28:41.753Z,30.23
2019-05-29T21:31:43.621Z,32.73
2019-05-29T21:34:48.049Z,32.50
2019-05-29T21:37:52.177Z,31.80
2019-05-29T21:40:56.472Z,32.27
2019-05-29T21:44:00.692Z,30.53
2019-05-29T21:47:04.919Z,31.17
2019-05-29T21:50:10.649Z,34.07
2019-05-29T21:53:15.091Z,30.87
2019-05-29T21:56:19.312Z,31.87
2019-05-29T21:59:23.535Z,33.13
2019-05-29T22:02:27.853Z,32.97
2019-05-29T22:05:32.880Z,32.50
2019-05-29T22:08:37.087Z,33.20
2019-05-29T22:11:42.852Z,33.93
2019-05-29T22:14:47.875Z,36.03
2019-05-29T22:17:52.907Z,34.67
2019-05-29T22:20:58.736Z,33.83
2019-05-29T22:24:03.219Z,36.33
2019-05-29T22:27:07.432Z,35.40
2019-05-29T22:30:11.972Z,37.40
2019-05-29T22:33:16.011Z,33.90
2019-05-29T22:36:20.279Z,35.17
2019-05-29T22:39:24.282Z,33.70
2019-05-29T22:42:28.422Z,34.67
2019-05-29T22:45:32.532Z,38.20
2019-05-29T22:48:36.753Z,35.20
2019-05-29T22:51:43.012Z,34.83
2019-05-29T22:54:47.316Z,34.30
2019-05-29T22:57:51.827Z,37.33
2019-05-29T23:00:56.174Z,37.30
2019-05-29T23:04:00.347Z,35.53
2019-05-29T23:07:04.494Z,36.93
2019-05-29T23:10:09.597Z,37.13
2019-05-29T23:13:13.873Z,36.50
2019-05-29T23:16:18.016Z,35.07
2019-05-29T23:19:22.193Z,36.43
2019-05-29T23:22:26.305Z,35.50
2019-05-29T23:25:30.333Z,35.10
2019-05-29T23:28:34.436Z,35.97
2019-05-29T23:31:38.440Z,35.43
2019-05-29T23:34:42.672Z,35.73
2019-05-29T23:37:46.786Z,37.47
2019-05-29T23:40:50.792Z,36.27
2019-05-29T23:43:55.410Z,35.20
2019-05-29T23:46:59.753Z,37.13
2019-05-29T23:50:05.393Z,35.73
2019-05-29T23:53:09.424Z,37.27
2019-05-29T23:56:13.487Z,36.87
2019-05-29T23:59:17.702Z,38.13
